sensor_id;sensor_type;location;lat;lon;timestamp;P1;durP1;ratioP1;P2;durP2;ratioP2
14394;SDS011;7282;49.204;10.652;2023-07-09T00:00:15;8.93;;;7.00;;
14394;SDS011;7282;49.204;10.652;2023-07-09T00:02:40;9.57;;;7.20;;
14394;SDS011;7282;49.204;10.652;2023-07-09T00:05:09;8.80;;;6.87;;
14394;SDS011;7282;49.204;10.652;2023-07-09T00:07:35;8.27;;;6.63;;
14394;SDS011;7282;49.204;10.652;2023-07-09T00:10:02;9.47;;;7.67;;
14394;SDS011;7282;49.204;10.652;2023-07-09T00:12:28;8.70;;;7.37;;
14394;SDS011;7282;49.204;10.652;2023-07-09T00:14:55;9.80;;;7.30;;
14394;SDS011;7282;49.204;10.652;2023-07-09T00:17:29;8.50;;;7.37;;
14394;SDS011;7282;49.204;10.652;2023-07-09T00:19:51;8.83;;;7.37;;
14394;SDS011;7282;49.204;10.652;2023-07-09T00:22:18;8.27;;;6.77;;
14394;SDS011;7282;49.204;10.652;2023-07-09T00:24:46;11.00;;;8.07;;
14394;SDS011;7282;49.204;10.652;2023-07-09T00:27:14;8.20;;;7.27;;
14394;SDS011;7282;49.204;10.652;2023-07-09T00:29:42;9.73;;;7.47;;
14394;SDS011;7282;49.204;10.652;2023-07-09T00:32:17;10.50;;;7.77;;
14394;SDS011;7282;49.204;10.652;2023-07-09T00:34:43;8.90;;;7.73;;
14394;SDS011;7282;49.204;10.652;2023-07-09T00:37:11;10.00;;;7.23;;
14394;SDS011;7282;49.204;10.652;2023-07-09T00:39:41;9.93;;;7.37;;
14394;SDS011;7282;49.204;10.652;2023-07-09T00:42:16;10.17;;;7.40;;
14394;SDS011;7282;49.204;10.652;2023-07-09T00:44:41;9.07;;;7.17;;
14394;SDS011;7282;49.204;10.652;2023-07-09T00:47:13;8.33;;;6.93;;
14394;SDS011;7282;49.204;10.652;2023-07-09T00:49:39;9.90;;;7.40;;
14394;SDS011;7282;49.204;10.652;2023-07-09T00:52:24;8.40;;;6.90;;
14394;SDS011;7282;49.204;10.652;2023-07-09T00:54:43;8.70;;;7.47;;
14394;SDS011;7282;49.204;10.652;2023-07-09T00:57:13;9.43;;;8.30;;
14394;SDS011;7282;49.204;10.652;2023-07-09T00:59:42;7.67;;;6.80;;
14394;SDS011;7282;49.204;10.652;2023-07-09T01:02:10;9.77;;;7.13;;
14394;SDS011;7282;49.204;10.652;2023-07-09T01:04:37;8.10;;;7.27;;
14394;SDS011;7282;49.204;10.652;2023-07-09T01:07:05;7.67;;;6.97;;
14394;SDS011;7282;49.204;10.652;2023-07-09T01:09:32;8.20;;;7.40;;
14394;SDS011;7282;49.204;10.652;2023-07-09T01:12:02;8.60;;;7.40;;
14394;SDS011;7282;49.204;10.652;2023-07-09T01:14:30;8.50;;;7.70;;
14394;SDS011;7282;49.204;10.652;2023-07-09T01:16:58;8.97;;;8.00;;
14394;SDS011;7282;49.204;10.652;2023-07-09T01:19:27;9.10;;;7.53;;
14394;SDS011;7282;49.204;10.652;2023-07-09T01:21:58;9.43;;;8.13;;
14394;SDS011;7282;49.204;10.652;2023-07-09T01:27:14;8.63;;;7.53;;
14394;SDS011;7282;49.204;10.652;2023-07-09T01:29:42;9.70;;;7.30;;
14394;SDS011;7282;49.204;10.652;2023-07-09T01:32:13;9.83;;;7.70;;
14394;SDS011;7282;49.204;10.652;2023-07-09T01:34:40;11.23;;;8.30;;
14394;SDS011;7282;49.204;10.652;2023-07-09T01:37:07;10.43;;;8.43;;
14394;SDS011;7282;49.204;10.652;2023-07-09T01:39:33;11.07;;;8.27;;
14394;SDS011;7282;49.204;10.652;2023-07-09T01:42:02;10.47;;;7.87;;
14394;SDS011;7282;49.204;10.652;2023-07-09T01:44:28;10.43;;;7.70;;
14394;SDS011;7282;49.204;10.652;2023-07-09T01:46:55;8.90;;;8.00;;
14394;SDS011;7282;49.204;10.652;2023-07-09T01:49:22;11.23;;;8.00;;
14394;SDS011;7282;49.204;10.652;2023-07-09T01:51:49;11.00;;;7.70;;
14394;SDS011;7282;49.204;10.652;2023-07-09T01:54:16;9.97;;;7.80;;
14394;SDS011;7282;49.204;10.652;2023-07-09T01:56:43;9.03;;;7.50;;
14394;SDS011;7282;49.204;10.652;2023-07-09T01:59:09;11.17;;;8.27;;
14394;SDS011;7282;49.204;10.652;2023-07-09T02:01:37;8.60;;;7.70;;
14394;SDS011;7282;49.204;10.652;2023-07-09T02:04:04;9.90;;;8.10;;
14394;SDS011;7282;49.204;10.652;2023-07-09T02:06:31;10.13;;;7.33;;
14394;SDS011;7282;49.204;10.652;2023-07-09T02:09:00;10.43;;;8.07;;
14394;SDS011;7282;49.204;10.652;2023-07-09T02:11:27;11.33;;;8.93;;
14394;SDS011;7282;49.204;10.652;2023-07-09T02:13:53;9.73;;;8.43;;
14394;SDS011;7282;49.204;10.652;2023-07-09T02:16:20;11.27;;;8.70;;
14394;SDS011;7282;49.204;10.652;2023-07-09T02:18:47;10.07;;;8.50;;
14394;SDS011;7282;49.204;10.652;2023-07-09T02:21:13;10.20;;;8.37;;
14394;SDS011;7282;49.204;10.652;2023-07-09T02:23:40;11.97;;;9.20;;
14394;SDS011;7282;49.204;10.652;2023-07-09T02:26:07;9.03;;;8.13;;
14394;SDS011;7282;49.204;10.652;2023-07-09T02:28:34;10.07;;;8.90;;
14394;SDS011;7282;49.204;10.652;2023-07-09T02:31:00;9.33;;;8.17;;
14394;SDS011;7282;49.204;10.652;2023-07-09T02:33:27;9.77;;;7.80;;
14394;SDS011;7282;49.204;10.652;2023-07-09T02:35:54;9.83;;;7.90;;
14394;SDS011;7282;49.204;10.652;2023-07-09T02:38:20;8.73;;;7.60;;
14394;SDS011;7282;49.204;10.652;2023-07-09T02:40:47;8.93;;;8.03;;
14394;SDS011;7282;49.204;10.652;2023-07-09T02:43:14;8.90;;;7.57;;
14394;SDS011;7282;49.204;10.652;2023-07-09T02:45:40;10.10;;;7.80;;
14394;SDS011;7282;49.204;10.652;2023-07-09T02:48:07;8.43;;;7.53;;
14394;SDS011;7282;49.204;10.652;2023-07-09T02:50:34;8.20;;;7.40;;
14394;SDS011;7282;49.204;10.652;2023-07-09T02:53:00;9.67;;;7.63;;
14394;SDS011;7282;49.204;10.652;2023-07-09T02:55:27;11.43;;;7.83;;
14394;SDS011;7282;49.204;10.652;2023-07-09T02:57:55;9.40;;;7.77;;
14394;SDS011;7282;49.204;10.652;2023-07-09T03:00:22;9.03;;;8.13;;
14394;SDS011;7282;49.204;10.652;2023-07-09T03:02:49;10.50;;;8.50;;
14394;SDS011;7282;49.204;10.652;2023-07-09T03:05:16;9.43;;;8.53;;
14394;SDS011;7282;49.204;10.652;2023-07-09T03:07:42;10.03;;;8.67;;
14394;SDS011;7282;49.204;10.652;2023-07-09T03:10:09;9.70;;;8.63;;
14394;SDS011;7282;49.204;10.652;2023-07-09T03:12:36;9.70;;;8.23;;
14394;SDS011;7282;49.204;10.652;2023-07-09T03:15:03;9.83;;;8.83;;
14394;SDS011;7282;49.204;10.652;2023-07-09T03:17:29;10.13;;;9.10;;
14394;SDS011;7282;49.204;10.652;2023-07-09T03:19:56;10.60;;;8.37;;
14394;SDS011;7282;49.204;10.652;2023-07-09T03:22:23;9.17;;;8.27;;
14394;SDS011;7282;49.204;10.652;2023-07-09T03:24:49;10.50;;;8.47;;
14394;SDS011;7282;49.204;10.652;2023-07-09T03:27:16;10.70;;;9.60;;
14394;SDS011;7282;49.204;10.652;2023-07-09T03:29:43;12.30;;;9.00;;
14394;SDS011;7282;49.204;10.652;2023-07-09T03:32:10;9.53;;;8.57;;
14394;SDS011;7282;49.204;10.652;2023-07-09T03:34:36;12.00;;;9.43;;
14394;SDS011;7282;49.204;10.652;2023-07-09T03:37:03;10.60;;;9.30;;
14394;SDS011;7282;49.204;10.652;2023-07-09T03:39:30;10.80;;;9.40;;
14394;SDS011;7282;49.204;10.652;2023-07-09T03:41:56;10.60;;;7.97;;
14394;SDS011;7282;49.204;10.652;2023-07-09T03:44:23;9.43;;;8.53;;
14394;SDS011;7282;49.204;10.652;2023-07-09T03:46:50;10.03;;;8.93;;
14394;SDS011;7282;49.204;10.652;2023-07-09T03:49:16;10.50;;;9.40;;
14394;SDS011;7282;49.204;10.652;2023-07-09T03:51:43;9.37;;;8.33;;
14394;SDS011;7282;49.204;10.652;2023-07-09T03:54:10;9.10;;;8.23;;
14394;SDS011;7282;49.204;10.652;2023-07-09T03:56:38;10.90;;;9.13;;
14394;SDS011;7282;49.204;10.652;2023-07-09T03:59:05;9.00;;;8.00;;
14394;SDS011;7282;49.204;10.652;2023-07-09T04:01:31;8.93;;;7.63;;
14394;SDS011;7282;49.204;10.652;2023-07-09T04:03:58;10.40;;;9.07;;
14394;SDS011;7282;49.204;10.652;2023-07-09T04:06:25;9.43;;;7.97;;
14394;SDS011;7282;49.204;10.652;2023-07-09T04:08:51;8.80;;;7.90;;
14394;SDS011;7282;49.204;10.652;2023-07-09T04:11:18;9.40;;;8.23;;
14394;SDS011;7282;49.204;10.652;2023-07-09T04:13:45;9.60;;;8.73;;
14394;SDS011;7282;49.204;10.652;2023-07-09T04:16:12;10.07;;;7.50;;
14394;SDS011;7282;49.204;10.652;2023-07-09T04:18:38;8.07;;;7.27;;
14394;SDS011;7282;49.204;10.652;2023-07-09T04:21:05;8.40;;;6.97;;
14394;SDS011;7282;49.204;10.652;2023-07-09T04:23:32;8.93;;;6.70;;
14394;SDS011;7282;49.204;10.652;2023-07-09T04:25:58;9.30;;;7.50;;
14394;SDS011;7282;49.204;10.652;2023-07-09T04:28:27;8.77;;;7.27;;
14394;SDS011;7282;49.204;10.652;2023-07-09T04:30:54;9.17;;;7.60;;
14394;SDS011;7282;49.204;10.652;2023-07-09T04:33:20;9.83;;;7.50;;
14394;SDS011;7282;49.204;10.652;2023-07-09T04:35:47;9.13;;;7.10;;
14394;SDS011;7282;49.204;10.652;2023-07-09T04:38:14;10.77;;;8.03;;
14394;SDS011;7282;49.204;10.652;2023-07-09T04:40:41;10.00;;;7.77;;
14394;SDS011;7282;49.204;10.652;2023-07-09T04:43:08;8.20;;;6.83;;
14394;SDS011;7282;49.204;10.652;2023-07-09T04:45:34;8.87;;;7.40;;
14394;SDS011;7282;49.204;10.652;2023-07-09T04:48:01;9.87;;;7.63;;
14394;SDS011;7282;49.204;10.652;2023-07-09T04:50:28;10.37;;;7.73;;
14394;SDS011;7282;49.204;10.652;2023-07-09T04:52:54;8.63;;;7.73;;
14394;SDS011;7282;49.204;10.652;2023-07-09T04:55:21;10.23;;;8.57;;
14394;SDS011;7282;49.204;10.652;2023-07-09T04:57:48;10.27;;;8.60;;
14394;SDS011;7282;49.204;10.652;2023-07-09T05:00:15;8.90;;;8.07;;
14394;SDS011;7282;49.204;10.652;2023-07-09T05:02:41;8.43;;;7.40;;
14394;SDS011;7282;49.204;10.652;2023-07-09T05:05:08;10.20;;;8.03;;
14394;SDS011;7282;49.204;10.652;2023-07-09T05:07:35;9.27;;;8.27;;
14394;SDS011;7282;49.204;10.652;2023-07-09T05:10:02;8.87;;;7.97;;
14394;SDS011;7282;49.204;10.652;2023-07-09T05:12:29;10.03;;;7.97;;
14394;SDS011;7282;49.204;10.652;2023-07-09T05:14:56;9.23;;;8.23;;
14394;SDS011;7282;49.204;10.652;2023-07-09T05:17:25;9.83;;;7.87;;
14394;SDS011;7282;49.204;10.652;2023-07-09T05:19:52;8.57;;;7.67;;
14394;SDS011;7282;49.204;10.652;2023-07-09T05:22:19;9.07;;;7.20;;
14394;SDS011;7282;49.204;10.652;2023-07-09T05:24:45;8.30;;;7.50;;
14394;SDS011;7282;49.204;10.652;2023-07-09T05:27:12;10.63;;;8.13;;
14394;SDS011;7282;49.204;10.652;2023-07-09T05:29:39;9.90;;;8.67;;
14394;SDS011;7282;49.204;10.652;2023-07-09T05:32:05;9.50;;;7.40;;
14394;SDS011;7282;49.204;10.652;2023-07-09T05:34:32;8.07;;;7.27;;
14394;SDS011;7282;49.204;10.652;2023-07-09T05:36:59;8.43;;;7.53;;
14394;SDS011;7282;49.204;10.652;2023-07-09T05:39:25;8.97;;;7.80;;
14394;SDS011;7282;49.204;10.652;2023-07-09T05:41:52;8.67;;;7.63;;
14394;SDS011;7282;49.204;10.652;2023-07-09T05:44:19;9.00;;;7.77;;
14394;SDS011;7282;49.204;10.652;2023-07-09T05:46:46;8.07;;;7.27;;
14394;SDS011;7282;49.204;10.652;2023-07-09T05:49:12;9.20;;;7.30;;
14394;SDS011;7282;49.204;10.652;2023-07-09T05:51:39;7.97;;;7.17;;
14394;SDS011;7282;49.204;10.652;2023-07-09T05:54:06;9.73;;;7.37;;
14394;SDS011;7282;49.204;10.652;2023-07-09T05:56:32;8.93;;;7.47;;
14394;SDS011;7282;49.204;10.652;2023-07-09T05:58:59;8.00;;;7.03;;
14394;SDS011;7282;49.204;10.652;2023-07-09T06:01:26;8.20;;;7.20;;
14394;SDS011;7282;49.204;10.652;2023-07-09T06:03:53;8.50;;;7.60;;
14394;SDS011;7282;49.204;10.652;2023-07-09T06:06:20;7.90;;;7.10;;
14394;SDS011;7282;49.204;10.652;2023-07-09T06:08:48;7.30;;;6.37;;
14394;SDS011;7282;49.204;10.652;2023-07-09T06:11:16;9.70;;;7.47;;
14394;SDS011;7282;49.204;10.652;2023-07-09T06:13:43;9.50;;;6.97;;
14394;SDS011;7282;49.204;10.652;2023-07-09T06:16:10;9.13;;;6.83;;
14394;SDS011;7282;49.204;10.652;2023-07-09T06:18:37;7.23;;;6.53;;
14394;SDS011;7282;49.204;10.652;2023-07-09T06:21:04;7.97;;;6.50;;
14394;SDS011;7282;49.204;10.652;2023-07-09T06:23:33;7.03;;;6.33;;
14394;SDS011;7282;49.204;10.652;2023-07-09T06:26:00;8.17;;;6.50;;
14394;SDS011;7282;49.204;10.652;2023-07-09T06:28:27;6.53;;;5.77;;
14394;SDS011;7282;49.204;10.652;2023-07-09T06:30:55;8.53;;;6.07;;
14394;SDS011;7282;49.204;10.652;2023-07-09T06:33:22;9.63;;;6.50;;
14394;SDS011;7282;49.204;10.652;2023-07-09T06:35:57;6.40;;;5.80;;
14394;SDS011;7282;49.204;10.652;2023-07-09T06:38:24;10.47;;;5.80;;
14394;SDS011;7282;49.204;10.652;2023-07-09T06:40:51;7.60;;;6.10;;
14394;SDS011;7282;49.204;10.652;2023-07-09T06:43:18;6.17;;;5.57;;
14394;SDS011;7282;49.204;10.652;2023-07-09T06:45:52;6.40;;;5.63;;
14394;SDS011;7282;49.204;10.652;2023-07-09T06:48:19;7.13;;;5.40;;
14394;SDS011;7282;49.204;10.652;2023-07-09T06:50:46;8.33;;;5.80;;
14394;SDS011;7282;49.204;10.652;2023-07-09T06:53:13;6.40;;;5.40;;
14394;SDS011;7282;49.204;10.652;2023-07-09T06:55:40;5.43;;;4.93;;
14394;SDS011;7282;49.204;10.652;2023-07-09T06:58:06;5.60;;;5.10;;
14394;SDS011;7282;49.204;10.652;2023-07-09T07:00:35;5.90;;;5.17;;
14394;SDS011;7282;49.204;10.652;2023-07-09T07:03:02;6.20;;;4.97;;
14394;SDS011;7282;49.204;10.652;2023-07-09T07:05:28;7.13;;;5.23;;
14394;SDS011;7282;49.204;10.652;2023-07-09T07:07:55;5.47;;;4.67;;
14394;SDS011;7282;49.204;10.652;2023-07-09T07:10:22;6.73;;;4.70;;
14394;SDS011;7282;49.204;10.652;2023-07-09T07:12:48;6.80;;;4.90;;
14394;SDS011;7282;49.204;10.652;2023-07-09T07:15:16;6.07;;;4.53;;
14394;SDS011;7282;49.204;10.652;2023-07-09T07:17:43;5.47;;;4.87;;
14394;SDS011;7282;49.204;10.652;2023-07-09T07:20:10;5.07;;;4.40;;
14394;SDS011;7282;49.204;10.652;2023-07-09T07:22:38;5.30;;;4.37;;
14394;SDS011;7282;49.204;10.652;2023-07-09T07:25:05;5.73;;;4.00;;
14394;SDS011;7282;49.204;10.652;2023-07-09T07:27:32;7.87;;;4.50;;
14394;SDS011;7282;49.204;10.652;2023-07-09T07:29:59;6.10;;;4.80;;
14394;SDS011;7282;49.204;10.652;2023-07-09T07:32:25;4.33;;;3.93;;
14394;SDS011;7282;49.204;10.652;2023-07-09T07:34:55;4.83;;;4.20;;
14394;SDS011;7282;49.204;10.652;2023-07-09T07:37:22;4.30;;;3.90;;
14394;SDS011;7282;49.204;10.652;2023-07-09T07:39:48;4.80;;;4.30;;
14394;SDS011;7282;49.204;10.652;2023-07-09T07:42:15;7.17;;;4.47;;
14394;SDS011;7282;49.204;10.652;2023-07-09T07:44:42;4.87;;;3.97;;
14394;SDS011;7282;49.204;10.652;2023-07-09T07:47:09;4.23;;;3.83;;
14394;SDS011;7282;49.204;10.652;2023-07-09T07:49:36;5.87;;;4.20;;
14394;SDS011;7282;49.204;10.652;2023-07-09T07:52:03;10.90;;;5.30;;
14394;SDS011;7282;49.204;10.652;2023-07-09T07:54:30;6.63;;;4.33;;
14394;SDS011;7282;49.204;10.652;2023-07-09T07:56:59;6.43;;;4.60;;
14394;SDS011;7282;49.204;10.652;2023-07-09T07:59:25;4.57;;;4.17;;
14394;SDS011;7282;49.204;10.652;2023-07-09T08:01:52;4.60;;;4.10;;
14394;SDS011;7282;49.204;10.652;2023-07-09T08:04:19;5.07;;;3.83;;
14394;SDS011;7282;49.204;10.652;2023-07-09T08:06:45;4.57;;;4.13;;
14394;SDS011;7282;49.204;10.652;2023-07-09T08:09:12;5.30;;;3.53;;
14394;SDS011;7282;49.204;10.652;2023-07-09T08:11:39;3.93;;;3.40;;
14394;SDS011;7282;49.204;10.652;2023-07-09T08:14:06;3.97;;;3.23;;
14394;SDS011;7282;49.204;10.652;2023-07-09T08:16:33;5.60;;;3.50;;
14394;SDS011;7282;49.204;10.652;2023-07-09T08:18:59;4.43;;;3.47;;
14394;SDS011;7282;49.204;10.652;2023-07-09T08:21:26;3.40;;;3.13;;
14394;SDS011;7282;49.204;10.652;2023-07-09T08:23:53;3.70;;;3.20;;
14394;SDS011;7282;49.204;10.652;2023-07-09T08:26:19;4.60;;;3.00;;
14394;SDS011;7282;49.204;10.652;2023-07-09T08:28:46;3.97;;;3.43;;
14394;SDS011;7282;49.204;10.652;2023-07-09T08:31:13;5.40;;;3.90;;
14394;SDS011;7282;49.204;10.652;2023-07-09T08:33:40;4.80;;;3.80;;
14394;SDS011;7282;49.204;10.652;2023-07-09T08:36:07;3.70;;;3.27;;
14394;SDS011;7282;49.204;10.652;2023-07-09T08:38:34;6.03;;;3.80;;
14394;SDS011;7282;49.204;10.652;2023-07-09T08:41:02;4.77;;;3.93;;
14394;SDS011;7282;49.204;10.652;2023-07-09T08:44:32;4.50;;;4.00;;
14394;SDS011;7282;49.204;10.652;2023-07-09T08:46:14;4.00;;;3.60;;
14394;SDS011;7282;49.204;10.652;2023-07-09T08:48:39;5.00;;;3.70;;
14394;SDS011;7282;49.204;10.652;2023-07-09T08:51:12;3.60;;;3.20;;
14394;SDS011;7282;49.204;10.652;2023-07-09T08:53:39;6.67;;;3.90;;
14394;SDS011;7282;49.204;10.652;2023-07-09T08:56:10;4.47;;;3.37;;
14394;SDS011;7282;49.204;10.652;2023-07-09T08:58:37;6.70;;;3.60;;
14394;SDS011;7282;49.204;10.652;2023-07-09T09:01:05;3.83;;;3.40;;
14394;SDS011;7282;49.204;10.652;2023-07-09T09:03:41;3.93;;;3.53;;
14394;SDS011;7282;49.204;10.652;2023-07-09T09:06:15;4.60;;;3.43;;
14394;SDS011;7282;49.204;10.652;2023-07-09T09:11:20;6.13;;;3.67;;
14394;SDS011;7282;49.204;10.652;2023-07-09T09:13:47;8.53;;;4.20;;
14394;SDS011;7282;49.204;10.652;2023-07-09T09:16:35;5.50;;;3.60;;
14394;SDS011;7282;49.204;10.652;2023-07-09T09:18:46;5.40;;;3.67;;
14394;SDS011;7282;49.204;10.652;2023-07-09T09:21:23;4.77;;;4.27;;
14394;SDS011;7282;49.204;10.652;2023-07-09T09:23:52;4.57;;;3.70;;
14394;SDS011;7282;49.204;10.652;2023-07-09T09:26:24;5.93;;;3.80;;
14394;SDS011;7282;49.204;10.652;2023-07-09T09:28:51;4.20;;;3.70;;
14394;SDS011;7282;49.204;10.652;2023-07-09T09:31:18;5.33;;;4.07;;
14394;SDS011;7282;49.204;10.652;2023-07-09T09:33:46;4.30;;;3.90;;
14394;SDS011;7282;49.204;10.652;2023-07-09T09:36:18;4.77;;;3.90;;
14394;SDS011;7282;49.204;10.652;2023-07-09T09:38:42;5.30;;;4.50;;
14394;SDS011;7282;49.204;10.652;2023-07-09T09:41:12;5.83;;;4.43;;
14394;SDS011;7282;49.204;10.652;2023-07-09T09:43:41;5.20;;;4.17;;
14394;SDS011;7282;49.204;10.652;2023-07-09T09:46:07;4.67;;;4.03;;
14394;SDS011;7282;49.204;10.652;2023-07-09T09:48:33;4.00;;;3.60;;
14394;SDS011;7282;49.204;10.652;2023-07-09T09:51:03;4.57;;;3.63;;
14394;SDS011;7282;49.204;10.652;2023-07-09T09:53:29;4.07;;;3.67;;
14394;SDS011;7282;49.204;10.652;2023-07-09T09:55:56;5.07;;;3.80;;
14394;SDS011;7282;49.204;10.652;2023-07-09T09:58:27;4.43;;;3.53;;
14394;SDS011;7282;49.204;10.652;2023-07-09T10:00:56;5.40;;;4.27;;
14394;SDS011;7282;49.204;10.652;2023-07-09T10:03:31;5.67;;;4.13;;
14394;SDS011;7282;49.204;10.652;2023-07-09T10:05:52;7.13;;;4.03;;
14394;SDS011;7282;49.204;10.652;2023-07-09T10:11:08;5.07;;;4.30;;
14394;SDS011;7282;49.204;10.652;2023-07-09T10:13:34;6.13;;;3.93;;
14394;SDS011;7282;49.204;10.652;2023-07-09T10:16:10;7.13;;;4.47;;
14394;SDS011;7282;49.204;10.652;2023-07-09T10:18:49;5.17;;;4.30;;
14394;SDS011;7282;49.204;10.652;2023-07-09T10:21:15;5.73;;;3.93;;
14394;SDS011;7282;49.204;10.652;2023-07-09T10:26:13;6.00;;;4.33;;
14394;SDS011;7282;49.204;10.652;2023-07-09T10:28:47;4.03;;;3.73;;
14394;SDS011;7282;49.204;10.652;2023-07-09T10:33:59;5.40;;;4.00;;
14394;SDS011;7282;49.204;10.652;2023-07-09T10:36:33;4.37;;;3.73;;
14394;SDS011;7282;49.204;10.652;2023-07-09T10:39:03;4.13;;;3.73;;
14394;SDS011;7282;49.204;10.652;2023-07-09T10:41:29;4.17;;;3.77;;
14394;SDS011;7282;49.204;10.652;2023-07-09T10:44:16;5.37;;;3.63;;
14394;SDS011;7282;49.204;10.652;2023-07-09T10:46:47;4.20;;;3.70;;
14394;SDS011;7282;49.204;10.652;2023-07-09T10:49:15;4.50;;;3.40;;
14394;SDS011;7282;49.204;10.652;2023-07-09T10:51:48;4.20;;;3.70;;
14394;SDS011;7282;49.204;10.652;2023-07-09T10:54:29;4.57;;;4.17;;
14394;SDS011;7282;49.204;10.652;2023-07-09T10:56:44;4.70;;;3.90;;
14394;SDS011;7282;49.204;10.652;2023-07-09T10:59:20;5.43;;;3.80;;
14394;SDS011;7282;49.204;10.652;2023-07-09T11:01:49;5.10;;;4.33;;
14394;SDS011;7282;49.204;10.652;2023-07-09T11:04:32;5.17;;;3.90;;
14394;SDS011;7282;49.204;10.652;2023-07-09T11:07:01;5.23;;;3.97;;
14394;SDS011;7282;49.204;10.652;2023-07-09T11:12:00;5.20;;;4.13;;
14394;SDS011;7282;49.204;10.652;2023-07-09T11:14:31;6.47;;;4.73;;
14394;SDS011;7282;49.204;10.652;2023-07-09T11:16:58;5.30;;;3.80;;
14394;SDS011;7282;49.204;10.652;2023-07-09T11:19:26;5.13;;;3.87;;
14394;SDS011;7282;49.204;10.652;2023-07-09T11:22:04;6.53;;;4.43;;
14394;SDS011;7282;49.204;10.652;2023-07-09T11:24:34;5.13;;;4.20;;
14394;SDS011;7282;49.204;10.652;2023-07-09T11:27:01;6.53;;;4.10;;
14394;SDS011;7282;49.204;10.652;2023-07-09T11:29:28;3.97;;;3.60;;
14394;SDS011;7282;49.204;10.652;2023-07-09T11:32:06;4.60;;;4.10;;
14394;SDS011;7282;49.204;10.652;2023-07-09T11:34:30;5.40;;;4.23;;
14394;SDS011;7282;49.204;10.652;2023-07-09T11:36:57;5.00;;;4.17;;
14394;SDS011;7282;49.204;10.652;2023-07-09T11:42:27;5.03;;;4.10;;
14394;SDS011;7282;49.204;10.652;2023-07-09T11:44:52;5.90;;;4.00;;
14394;SDS011;7282;49.204;10.652;2023-07-09T11:47:22;4.97;;;4.13;;
14394;SDS011;7282;49.204;10.652;2023-07-09T11:50:04;5.67;;;4.10;;
14394;SDS011;7282;49.204;10.652;2023-07-09T11:52:43;5.30;;;4.27;;
14394;SDS011;7282;49.204;10.652;2023-07-09T11:55:19;4.40;;;4.00;;
14394;SDS011;7282;49.204;10.652;2023-07-09T11:57:41;6.43;;;4.17;;
14394;SDS011;7282;49.204;10.652;2023-07-09T12:00:08;4.33;;;3.93;;
14394;SDS011;7282;49.204;10.652;2023-07-09T12:02:35;6.03;;;4.30;;
14394;SDS011;7282;49.204;10.652;2023-07-09T12:05:02;6.17;;;4.20;;
14394;SDS011;7282;49.204;10.652;2023-07-09T12:07:30;4.70;;;4.20;;
14394;SDS011;7282;49.204;10.652;2023-07-09T12:09:57;5.23;;;4.20;;
14394;SDS011;7282;49.204;10.652;2023-07-09T12:12:24;5.87;;;4.00;;
14394;SDS011;7282;49.204;10.652;2023-07-09T12:14:52;4.70;;;4.20;;
14394;SDS011;7282;49.204;10.652;2023-07-09T12:17:18;6.90;;;4.33;;
14394;SDS011;7282;49.204;10.652;2023-07-09T12:19:45;4.87;;;3.87;;
14394;SDS011;7282;49.204;10.652;2023-07-09T12:22:16;4.43;;;4.00;;
14394;SDS011;7282;49.204;10.652;2023-07-09T12:24:43;4.30;;;3.90;;
14394;SDS011;7282;49.204;10.652;2023-07-09T12:27:17;4.60;;;3.70;;
14394;SDS011;7282;49.204;10.652;2023-07-09T12:29:44;5.90;;;4.30;;
14394;SDS011;7282;49.204;10.652;2023-07-09T12:32:12;4.70;;;4.20;;
14394;SDS011;7282;49.204;10.652;2023-07-09T12:34:39;5.13;;;4.63;;
14394;SDS011;7282;49.204;10.652;2023-07-09T12:37:11;7.00;;;4.30;;
14394;SDS011;7282;49.204;10.652;2023-07-09T12:39:34;4.40;;;4.00;;
14394;SDS011;7282;49.204;10.652;2023-07-09T12:42:03;5.67;;;4.30;;
14394;SDS011;7282;49.204;10.652;2023-07-09T12:44:34;4.93;;;3.90;;
14394;SDS011;7282;49.204;10.652;2023-07-09T12:46:58;4.83;;;4.00;;
14394;SDS011;7282;49.204;10.652;2023-07-09T12:49:30;5.87;;;4.20;;
14394;SDS011;7282;49.204;10.652;2023-07-09T12:51:57;6.23;;;4.07;;
14394;SDS011;7282;49.204;10.652;2023-07-09T12:54:22;5.27;;;4.17;;
14394;SDS011;7282;49.204;10.652;2023-07-09T12:56:53;5.80;;;4.17;;
14394;SDS011;7282;49.204;10.652;2023-07-09T12:59:21;4.97;;;3.97;;
14394;SDS011;7282;49.204;10.652;2023-07-09T13:01:48;5.83;;;4.60;;
14394;SDS011;7282;49.204;10.652;2023-07-09T13:04:15;5.63;;;3.80;;
14394;SDS011;7282;49.204;10.652;2023-07-09T13:06:43;5.23;;;3.90;;
14394;SDS011;7282;49.204;10.652;2023-07-09T13:09:20;6.80;;;4.40;;
14394;SDS011;7282;49.204;10.652;2023-07-09T13:11:49;5.33;;;4.17;;
14394;SDS011;7282;49.204;10.652;2023-07-09T13:14:20;5.23;;;4.13;;
14394;SDS011;7282;49.204;10.652;2023-07-09T13:16:47;6.40;;;4.57;;
14394;SDS011;7282;49.204;10.652;2023-07-09T13:19:14;4.27;;;3.87;;
14394;SDS011;7282;49.204;10.652;2023-07-09T13:21:41;4.93;;;3.87;;
14394;SDS011;7282;49.204;10.652;2023-07-09T13:24:15;5.50;;;4.13;;
14394;SDS011;7282;49.204;10.652;2023-07-09T13:26:42;5.23;;;4.33;;
14394;SDS011;7282;49.204;10.652;2023-07-09T13:29:15;5.33;;;4.03;;
14394;SDS011;7282;49.204;10.652;2023-07-09T13:31:46;4.23;;;3.67;;
14394;SDS011;7282;49.204;10.652;2023-07-09T13:34:17;4.53;;;3.77;;
14394;SDS011;7282;49.204;10.652;2023-07-09T13:36:42;5.07;;;3.93;;
14394;SDS011;7282;49.204;10.652;2023-07-09T13:39:09;6.40;;;4.03;;
14394;SDS011;7282;49.204;10.652;2023-07-09T13:41:36;5.93;;;4.40;;
14394;SDS011;7282;49.204;10.652;2023-07-09T13:44:09;4.53;;;3.97;;
14394;SDS011;7282;49.204;10.652;2023-07-09T13:46:33;4.40;;;4.00;;
14394;SDS011;7282;49.204;10.652;2023-07-09T13:49:00;4.80;;;3.83;;
14394;SDS011;7282;49.204;10.652;2023-07-09T13:51:28;5.57;;;3.90;;
14394;SDS011;7282;49.204;10.652;2023-07-09T13:53:55;4.40;;;4.00;;
14394;SDS011;7282;49.204;10.652;2023-07-09T13:56:24;5.20;;;4.20;;
14394;SDS011;7282;49.204;10.652;2023-07-09T13:58:50;4.73;;;4.20;;
14394;SDS011;7282;49.204;10.652;2023-07-09T14:01:19;4.63;;;4.07;;
14394;SDS011;7282;49.204;10.652;2023-07-09T14:03:48;5.87;;;4.40;;
14394;SDS011;7282;49.204;10.652;2023-07-09T14:06:16;5.03;;;3.93;;
14394;SDS011;7282;49.204;10.652;2023-07-09T14:08:43;4.60;;;4.20;;
14394;SDS011;7282;49.204;10.652;2023-07-09T14:11:10;4.37;;;3.97;;
14394;SDS011;7282;49.204;10.652;2023-07-09T14:13:38;6.87;;;3.87;;
14394;SDS011;7282;49.204;10.652;2023-07-09T14:16:06;5.07;;;4.00;;
14394;SDS011;7282;49.204;10.652;2023-07-09T14:18:32;8.77;;;4.20;;
14394;SDS011;7282;49.204;10.652;2023-07-09T14:20:59;6.10;;;4.20;;
14394;SDS011;7282;49.204;10.652;2023-07-09T14:23:26;4.40;;;3.90;;
14394;SDS011;7282;49.204;10.652;2023-07-09T14:25:53;5.43;;;4.30;;
14394;SDS011;7282;49.204;10.652;2023-07-09T14:28:20;4.10;;;3.70;;
14394;SDS011;7282;49.204;10.652;2023-07-09T14:30:47;4.90;;;4.33;;
14394;SDS011;7282;49.204;10.652;2023-07-09T14:33:16;4.95;;;4.10;;
14394;SDS011;7282;49.204;10.652;2023-07-09T14:35:43;5.73;;;4.50;;
14394;SDS011;7282;49.204;10.652;2023-07-09T14:38:15;5.97;;;4.55;;
14394;SDS011;7282;49.204;10.652;2023-07-09T14:40:43;7.27;;;4.27;;
14394;SDS011;7282;49.204;10.652;2023-07-09T14:43:10;4.73;;;4.20;;
14394;SDS011;7282;49.204;10.652;2023-07-09T14:45:37;4.03;;;3.63;;
14394;SDS011;7282;49.204;10.652;2023-07-09T14:48:17;6.00;;;3.93;;
14394;SDS011;7282;49.204;10.652;2023-07-09T14:50:39;5.47;;;3.87;;
14394;SDS011;7282;49.204;10.652;2023-07-09T14:53:11;5.97;;;4.10;;
14394;SDS011;7282;49.204;10.652;2023-07-09T14:55:38;4.90;;;4.37;;
14394;SDS011;7282;49.204;10.652;2023-07-09T14:58:11;4.57;;;4.17;;
14394;SDS011;7282;49.204;10.652;2023-07-09T15:00:37;5.53;;;3.92;;
14394;SDS011;7282;49.204;10.652;2023-07-09T15:03:04;4.73;;;3.90;;
14394;SDS011;7282;49.204;10.652;2023-07-09T15:05:31;6.33;;;4.47;;
14394;SDS011;7282;49.204;10.652;2023-07-09T15:07:57;5.00;;;4.53;;